createdAt,value
2023-04-28T00:01:23.189Z,97782.50
2023-04-28T00:03:49.577Z,97779.50
2023-04-28T00:06:16.165Z,97780.75
2023-04-28T00:08:42.572Z,97782.03
2023-04-28T00:11:08.893Z,97779.06
2023-04-28T00:13:35.300Z,97777.66
2023-04-28T00:16:03.048Z,97770.97
2023-04-28T00:18:29.454Z,97761.59
2023-04-28T00:20:55.828Z,97770.03
2023-04-28T00:23:22.124Z,97764.38
2023-04-28T00:25:48.477Z,97757.44
2023-04-28T00:28:26.847Z,97744.50
2023-04-28T00:30:59.655Z,97761.59
2023-04-28T00:33:26.021Z,97751.41
2023-04-28T00:35:52.367Z,97745.56
2023-04-28T00:38:18.650Z,97754.78
2023-04-28T00:40:45.150Z,97750.53
2023-04-28T00:43:11.477Z,97749.94
2023-04-28T00:45:37.947Z,97750.75
2023-04-28T00:48:04.653Z,97751.19
2023-04-28T00:50:31.246Z,97748.78
2023-04-28T00:52:57.603Z,97737.56
2023-04-28T00:55:24.085Z,97744.16
2023-04-28T00:57:50.377Z,97737.22
2023-04-28T01:00:16.889Z,97731.31
2023-04-28T01:02:43.356Z,97721.75
2023-04-28T01:05:09.682Z,97718.50
2023-04-28T01:07:35.980Z,97710.19
2023-04-28T01:10:02.270Z,97712.03
2023-04-28T01:12:28.555Z,97718.63
2023-04-28T01:14:54.842Z,97718.88
2023-04-28T01:17:21.216Z,97708.25
2023-04-28T01:19:47.516Z,97705.00
2023-04-28T01:22:13.818Z,97705.25
2023-04-28T01:24:40.174Z,97694.84
2023-04-28T01:27:07.396Z,97706.50
2023-04-28T01:29:33.698Z,97704.91
2023-04-28T01:32:00.073Z,97705.13
2023-04-28T01:34:26.798Z,97702.72
2023-04-28T01:36:53.136Z,97708.03
2023-04-28T01:39:19.390Z,97700.25
2023-04-28T01:41:45.718Z,97694.16
2023-04-28T01:44:12.037Z,97703.97
2023-04-28T01:46:38.414Z,97703.38
2023-04-28T01:49:04.971Z,97699.91
2023-04-28T01:51:31.256Z,97704.66
2023-04-28T01:53:57.614Z,97697.72
2023-04-28T01:56:23.890Z,97693.47
2023-04-28T01:58:50.421Z,97685.72
2023-04-28T02:01:16.959Z,97690.22
2023-04-28T02:03:43.484Z,97688.59
2023-04-28T02:06:09.899Z,97688.03
2023-04-28T02:08:36.451Z,97693.34
2023-04-28T02:11:03.154Z,97678.44
2023-04-28T02:13:29.437Z,97673.34
2023-04-28T02:15:56.187Z,97668.03
2023-04-28T02:18:22.506Z,97665.63
2023-04-28T02:20:49.145Z,97676.47
2023-04-28T02:23:15.508Z,97673.00
2023-04-28T02:25:41.955Z,97665.28
2023-04-28T02:28:08.465Z,97667.13
2023-04-28T02:30:34.970Z,97665.50
2023-04-28T02:33:01.391Z,97647.94
2023-04-28T02:35:27.774Z,97652.69
2023-04-28T02:37:54.148Z,97651.84
2023-04-28T02:40:20.443Z,97646.78
2023-04-28T02:42:46.770Z,97633.50
2023-04-28T02:45:13.160Z,97638.22
2023-04-28T02:47:39.506Z,97631.28
2023-04-28T02:50:06.160Z,97634.19
2023-04-28T02:52:32.685Z,97636.06
2023-04-28T02:54:59.219Z,97624.84
2023-04-28T02:57:25.732Z,97619.53
2023-04-28T02:59:52.114Z,97628.53
2023-04-28T03:02:18.880Z,97617.31
2023-04-28T03:04:45.336Z,97613.06
2023-04-28T03:07:11.764Z,97615.94
2023-04-28T03:09:38.603Z,97627.38
2023-04-28T03:12:05.641Z,97622.28
2023-04-28T03:14:32.176Z,97616.19
2023-04-28T03:16:58.606Z,97617.22
2023-04-28T03:19:25.018Z,97612.94
2023-04-28T03:21:51.529Z,97601.06
2023-04-28T03:24:18.157Z,97609.47
2023-04-28T03:26:44.645Z,97595.63
2023-04-28T03:29:11.312Z,97595.63
2023-04-28T03:31:37.658Z,97601.16
2023-04-28T03:34:04.254Z,97591.59
2023-04-28T03:36:30.669Z,97599.81
2023-04-28T03:38:57.038Z,97591.03
2023-04-28T03:41:23.401Z,97584.31
2023-04-28T03:43:49.685Z,97578.22
2023-04-28T03:46:16.087Z,97583.75
2023-04-28T03:48:42.681Z,97583.75
2023-04-28T03:51:09.044Z,97575.22
2023-04-28T03:53:35.373Z,97570.16
2023-04-28T03:56:01.731Z,97573.81
2023-04-28T03:58:28.224Z,97571.41
2023-04-28T04:00:54.607Z,97573.25
2023-04-28T04:03:21.021Z,97569.22
2023-04-28T04:05:47.727Z,97565.75
2023-04-28T04:08:14.262Z,97569.22
2023-04-28T04:10:40.574Z,97566.56
2023-04-28T04:13:06.885Z,97570.59
2023-04-28T04:15:33.379Z,97570.59
2023-04-28T04:17:59.750Z,97565.28
2023-04-28T04:20:26.085Z,97565.28
2023-04-28T04:22:52.434Z,97561.59
2023-04-28T04:25:19.498Z,97555.47
2023-04-28T04:27:50.080Z,97553.66
2023-04-28T04:30:16.512Z,97562.38
2023-04-28T04:32:42.995Z,97558.94
2023-04-28T04:35:09.360Z,97557.09
2023-04-28T04:37:35.988Z,97565.03
2023-04-28T04:40:03.087Z,97563.22
2023-04-28T04:42:30.034Z,97554.44
2023-04-28T04:44:56.385Z,97547.28
2023-04-28T04:47:22.764Z,97557.09
2023-04-28T04:49:49.054Z,97556.31
2023-04-28T04:52:15.381Z,97553.88
2023-04-28T04:54:41.802Z,97556.19
2023-04-28T04:57:08.082Z,97557.22
2023-04-28T04:59:34.353Z,97552.13
2023-04-28T05:02:00.731Z,97555.59
2023-04-28T05:04:27.139Z,97553.97
2023-04-28T05:06:53.500Z,97558.50
2023-04-28T05:09:20.116Z,97556.84
2023-04-28T05:11:46.448Z,97561.34
2023-04-28T05:14:12.708Z,97560.56
2023-04-28T05:16:39.077Z,97560.56
2023-04-28T05:19:05.671Z,97562.63
2023-04-28T05:21:31.968Z,97557.09
2023-04-28T05:23:58.203Z,97547.53
2023-04-28T05:26:24.664Z,97550.19
2023-04-28T05:28:51.144Z,97548.53
2023-04-28T05:31:17.633Z,97548.78
2023-04-28T05:33:44.486Z,97556.84
2023-04-28T05:36:11.348Z,97555.00
2023-04-28T05:38:37.830Z,97558.25
2023-04-28T05:41:04.196Z,97558.00
2023-04-28T05:43:30.531Z,97559.88
2023-04-28T05:48:41.395Z,97557.06
2023-04-28T05:51:09.779Z,97561.22
2023-04-28T05:53:36.133Z,97555.78
2023-04-28T05:56:24.084Z,97557.50
2023-04-28T05:58:59.324Z,97555.97
2023-04-28T06:01:25.705Z,97551.31
2023-04-28T06:03:52.242Z,97547.97
2023-04-28T06:06:18.858Z,97541.94
2023-04-28T06:14:36.166Z,97533.22
2023-04-28T06:17:27.017Z,97528.22
2023-04-28T06:19:53.855Z,97528.31
2023-04-28T06:22:23.128Z,97530.50
2023-04-28T06:24:54.928Z,97528.41
2023-04-28T06:27:21.429Z,97534.06
2023-04-28T06:29:50.884Z,97529.31
2023-04-28T06:32:17.358Z,97526.16
2023-04-28T06:34:57.177Z,97527.78
2023-04-28T06:37:37.258Z,97516.66
2023-04-28T06:40:08.388Z,97519.94
2023-04-28T06:42:34.820Z,97522.91
2023-04-28T06:45:01.179Z,97517.34
2023-04-28T06:47:27.604Z,97509.94
2023-04-28T06:49:58.149Z,97513.94
2023-04-28T06:52:38.517Z,97519.84
2023-04-28T06:55:05.746Z,97479.09
2023-04-28T06:57:32.157Z,97523.06
2023-04-28T06:59:58.632Z,97520.41
2023-04-28T07:02:25.198Z,97531.06
2023-04-28T07:04:51.914Z,97530.03
2023-04-28T07:07:18.428Z,97519.13
2023-04-28T07:09:47.036Z,97518.66
2023-04-28T07:12:13.296Z,97514.47
2023-04-28T07:14:39.634Z,97522.19
2023-04-28T07:17:05.903Z,97520.88
2023-04-28T07:19:32.383Z,97516.13
2023-04-28T07:21:58.701Z,97524.13
2023-04-28T07:24:25.019Z,97508.16
2023-04-28T07:26:52.194Z,97514.28
2023-04-28T07:29:18.966Z,97513.56
2023-04-28T07:31:45.518Z,97513.09
2023-04-28T07:34:12.154Z,97509.94
2023-04-28T07:36:38.465Z,97507.84
2023-04-28T07:39:05.085Z,97504.13
2023-04-28T07:41:31.412Z,97504.44
2023-04-28T07:43:57.733Z,97502.09
2023-04-28T07:46:24.053Z,97507.75
2023-04-28T07:48:51.645Z,97500.06
2023-04-28T07:51:17.987Z,97503.28
2023-04-28T07:53:44.373Z,97503.06
2023-04-28T07:56:10.721Z,97489.25
2023-04-28T07:58:37.040Z,97490.38
2023-04-28T08:01:03.388Z,97491.38
2023-04-28T08:03:30.003Z,97497.41
2023-04-28T08:05:56.648Z,97484.84
2023-04-28T08:08:23.284Z,97489.41
2023-04-28T08:10:49.721Z,97475.94
2023-04-28T08:13:16.110Z,97466.19
2023-04-28T08:15:42.635Z,97471.63
2023-04-28T08:18:08.943Z,97476.41
2023-04-28T08:20:35.536Z,97473.88
2023-04-28T08:23:01.931Z,97468.44
2023-04-28T08:25:28.240Z,97460.88
2023-04-28T08:27:55.869Z,97463.97
2023-04-28T08:30:23.519Z,97464.75
2023-04-28T08:32:49.837Z,97469.78
2023-04-28T08:35:16.199Z,97465.72
2023-04-28T08:37:42.506Z,97470.28
2023-04-28T08:40:08.790Z,97462.28
2023-04-28T08:42:35.113Z,97471.63
2023-04-28T08:45:01.637Z,97465.00
2023-04-28T08:47:28.168Z,97475.16
2023-04-28T08:49:54.445Z,97470.38
2023-04-28T08:52:20.745Z,97468.53
2023-04-28T08:54:47.303Z,97472.53
2023-04-28T08:57:13.639Z,97476.00
2023-04-28T08:59:40.103Z,97472.28
2023-04-28T09:02:06.519Z,97474.69
2023-04-28T09:04:33.002Z,97468.56
2023-04-28T09:06:59.404Z,97467.50
2023-04-28T09:09:26.138Z,97469.66
2023-04-28T09:11:52.775Z,97475.00
2023-04-28T09:14:19.182Z,97474.22
2023-04-28T09:16:45.962Z,97479.28
2023-04-28T09:19:18.715Z,97475.56
2023-04-28T09:21:48.180Z,97469.44
2023-04-28T09:24:14.684Z,97461.19
2023-04-28T09:26:41.231Z,97452.66
2023-04-28T09:29:07.485Z,97456.69
2023-04-28T09:31:34.161Z,97446.31
2023-04-28T09:34:00.573Z,97448.22
2023-04-28T09:36:26.837Z,97438.91
2023-04-28T09:38:54.152Z,97434.94
2023-04-28T09:41:21.314Z,97437.09
2023-04-28T09:43:47.574Z,97426.97
2023-04-28T09:46:13.891Z,97427.53
2023-04-28T09:48:40.426Z,97423.06
2023-04-28T09:51:06.876Z,97421.47
2023-04-28T09:53:33.250Z,97427.88
2023-04-28T09:55:59.572Z,97423.06
2023-04-28T09:58:26.004Z,97416.94
2023-04-28T10:00:52.353Z,97418.78
2023-04-28T10:03:19.987Z,97419.59
2023-04-28T10:05:48.303Z,97411.34
2023-04-28T10:08:15.037Z,97412.69
2023-04-28T10:10:41.684Z,97414.28
2023-04-28T10:13:08.192Z,97415.91
2023-04-28T10:15:34.573Z,97414.28
2023-04-28T10:18:01.312Z,97420.44
2023-04-28T10:20:27.719Z,97424.41
2023-04-28T10:22:54.010Z,97427.06
2023-04-28T10:25:20.329Z,97421.75
2023-04-28T10:27:46.671Z,97427.88
2023-04-28T10:30:26.453Z,97421.75
2023-04-28T10:32:54.458Z,97413.75
2023-04-28T10:35:20.909Z,97427.88
2023-04-28T10:37:47.489Z,97410.28
2023-04-28T10:40:13.963Z,97413.75
2023-04-28T10:42:40.291Z,97407.38
2023-04-28T10:45:06.586Z,97407.09
2023-04-28T10:47:33.021Z,97406.84
2023-04-28T10:49:59.318Z,97419.66
2023-04-28T10:52:25.704Z,97405.28
2023-04-28T10:54:52.109Z,97406.88
2023-04-28T10:57:18.511Z,97414.63
2023-04-28T10:59:44.772Z,97414.34
2023-04-28T11:02:11.244Z,97410.66
2023-04-28T11:04:37.948Z,97414.66
2023-04-28T11:07:04.429Z,97410.94
2023-04-28T11:09:31.411Z,97408.00
2023-04-28T11:11:57.693Z,97408.31
2023-04-28T11:14:24.448Z,97409.91
2023-04-28T11:16:57.553Z,97393.66
2023-04-28T11:19:24.705Z,97394.19
2023-04-28T11:21:51.706Z,97392.88
2023-04-28T11:24:18.131Z,97396.09
2023-04-28T11:26:45.004Z,97391.53
2023-04-28T11:29:11.388Z,97396.38
2023-04-28T11:31:37.910Z,97390.50
2023-04-28T11:34:04.327Z,97387.88
2023-04-28T11:36:30.643Z,97392.97
2023-04-28T11:52:16.878Z,97381.88
2023-04-28T11:54:43.186Z,97383.72
2023-04-28T11:57:09.498Z,97381.06
2023-04-28T11:59:35.790Z,97378.38
2023-04-28T12:02:02.325Z,97384.81
2023-04-28T12:04:28.658Z,97381.31
2023-04-28T12:06:54.978Z,97381.59
2023-04-28T12:09:21.244Z,97386.94
2023-04-28T12:11:47.546Z,97378.09
2023-04-28T12:14:13.858Z,97377.88
2023-04-28T12:16:40.139Z,97370.38
2023-04-28T12:19:06.631Z,97369.88
2023-04-28T12:21:32.968Z,97380.84
2023-04-28T12:23:59.250Z,97376.28
2023-04-28T12:26:25.796Z,97373.38
2023-04-28T12:28:52.074Z,97365.88
2023-04-28T12:31:18.585Z,97365.13
2023-04-28T12:33:44.876Z,97357.94
2023-04-28T12:36:11.120Z,97352.34
2023-04-28T12:38:38.485Z,97355.78
2023-04-28T12:41:04.922Z,97356.59
2023-04-28T12:43:31.190Z,97355.28
2023-04-28T12:45:57.556Z,97361.66
2023-04-28T12:48:24.136Z,97362.75
2023-04-28T12:50:50.526Z,97356.59
2023-04-28T12:53:16.805Z,97351.25
2023-04-28T12:55:46.479Z,97352.88
2023-04-28T12:58:12.982Z,97349.13
2023-04-28T13:00:39.303Z,97354.47
2023-04-28T13:03:05.795Z,97355.28
2023-04-28T13:05:32.286Z,97349.94
2023-04-28T13:07:58.730Z,97353.38
2023-04-28T13:10:25.146Z,97356.06
2023-04-28T13:12:51.532Z,97347.00
2023-04-28T13:15:18.191Z,97352.06
2023-04-28T13:17:44.822Z,97345.66
2023-04-28T13:20:11.451Z,97339.00
2023-04-28T13:22:38.296Z,97333.66
2023-04-28T13:25:04.874Z,97334.97
2023-04-28T13:27:32.340Z,97332.84
2023-04-28T13:29:58.900Z,97331.53
2023-04-28T13:32:25.167Z,97334.19
2023-04-28T13:34:51.796Z,97339.53
2023-04-28T13:37:18.326Z,97340.34
2023-04-28T13:39:45.052Z,97344.06
2023-04-28T13:42:11.432Z,97340.59
2023-04-28T13:44:37.841Z,97334.19
2023-04-28T13:47:04.209Z,97328.84
2023-04-28T13:49:30.780Z,97332.56
2023-04-28T13:51:58.148Z,97331.53
2023-04-28T13:54:24.463Z,97334.19
2023-04-28T13:56:50.972Z,97330.97
2023-04-28T13:59:17.327Z,97329.13
2023-04-28T14:01:44.294Z,97327.25
2023-04-28T14:04:11.093Z,97324.31
2023-04-28T14:06:37.836Z,97320.31
2023-04-28T14:09:04.252Z,97307.22
2023-04-28T14:11:30.554Z,97312.28
2023-04-28T14:13:56.820Z,97303.22
2023-04-28T14:16:23.473Z,97316.03
2023-04-28T14:18:50.126Z,97318.19
2023-04-28T14:21:16.683Z,97309.38
2023-04-28T14:23:43.141Z,97311.50
2023-04-28T14:26:09.506Z,97309.09
2023-04-28T14:28:36.025Z,97299.47
2023-04-28T14:31:02.404Z,97299.75
2023-04-28T14:33:28.744Z,97296.78
2023-04-28T14:35:55.126Z,97294.13
2023-04-28T14:38:21.534Z,97293.34
2023-04-28T14:40:48.135Z,97294.94
2023-04-28T14:43:14.975Z,97295.75
2023-04-28T14:45:41.458Z,97291.44
2023-04-28T14:48:07.988Z,97285.31
2023-04-28T14:50:34.601Z,97288.78
2023-04-28T14:53:01.085Z,97285.31
2023-04-28T14:55:27.633Z,97289.03
2023-04-28T14:57:54.033Z,97286.09
2023-04-28T15:00:20.553Z,97277.03
2023-04-28T15:02:47.099Z,97280.25
2023-04-28T15:05:13.611Z,97273.81
2023-04-28T15:07:40.318Z,97284.25
2023-04-28T15:10:06.682Z,97287.19
2023-04-28T15:12:33.015Z,97282.66
2023-04-28T15:14:59.500Z,97274.91
2023-04-28T15:17:25.896Z,97275.41
2023-04-28T15:19:52.315Z,97275.94
2023-04-28T15:22:18.727Z,97273.00
2023-04-28T15:24:45.205Z,97278.09
2023-04-28T15:27:11.590Z,97272.75
2023-04-28T15:29:37.868Z,97267.13
2023-04-28T15:32:06.500Z,97275.97
2023-04-28T15:34:32.828Z,97273.03
2023-04-28T15:36:59.300Z,97277.56
2023-04-28T15:42:09.029Z,97274.59
2023-04-28T15:44:35.399Z,97278.91
2023-04-28T15:47:01.719Z,97278.09
2023-04-28T15:49:28.213Z,97282.34
2023-04-28T15:51:54.539Z,97281.31
2023-04-28T15:54:20.870Z,97282.91
2023-04-28T15:56:47.339Z,97277.56
2023-04-28T15:59:13.973Z,97280.75
2023-04-28T16:01:40.384Z,97280.50
2023-04-28T16:04:07.103Z,97278.63
2023-04-28T16:06:33.903Z,97282.88
2023-04-28T16:09:00.252Z,97276.50
2023-04-28T16:11:26.906Z,97272.72
2023-04-28T16:13:53.586Z,97278.63
2023-04-28T16:16:21.495Z,97279.16
2023-04-28T16:18:47.836Z,97270.03
2023-04-28T16:21:14.637Z,97279.41
2023-04-28T16:23:43.942Z,97275.69
2023-04-28T16:26:10.288Z,97258.84
2023-04-28T16:28:37.373Z,97249.72
2023-04-28T16:31:03.663Z,97237.44
2023-04-28T16:33:30.421Z,97237.44
2023-04-28T16:35:57.093Z,97243.59
2023-04-28T16:38:23.536Z,97236.63
2023-04-28T16:40:52.531Z,97241.69
2023-04-28T16:43:22.280Z,97239.84
2023-04-28T16:45:48.662Z,97239.03
2023-04-28T16:48:15.241Z,97239.03
2023-04-28T16:50:41.649Z,97240.91
2023-04-28T16:53:08.071Z,97234.47
2023-04-28T16:55:34.495Z,97239.56
2023-04-28T16:58:00.940Z,97242.22
2023-04-28T17:00:27.248Z,97236.06
2023-04-28T17:02:53.681Z,97240.63
2023-04-28T17:05:20.318Z,97235.56
2023-04-28T17:07:46.663Z,97239.84
2023-04-28T17:10:13.603Z,97233.66
2023-04-28T17:12:39.960Z,97232.63
2023-04-28T17:15:06.447Z,97232.63
2023-04-28T17:17:33.103Z,97236.34
2023-04-28T17:19:59.985Z,97234.22
2023-04-28T17:22:26.406Z,97240.66
2023-04-28T17:24:52.945Z,97239.84
2023-04-28T17:27:22.526Z,97237.16
2023-04-28T17:29:49.150Z,97229.41
2023-04-28T17:32:15.628Z,97233.16
2023-04-28T17:34:42.118Z,97228.31
2023-04-28T17:37:08.606Z,97234.47
2023-04-28T17:39:35.016Z,97237.44
2023-04-28T17:42:01.605Z,97233.13
2023-04-28T17:44:27.941Z,97235.81
2023-04-28T17:46:54.429Z,97228.88
2023-04-28T17:49:20.929Z,97226.47
2023-04-28T17:51:47.246Z,97220.03
2023-04-28T17:54:13.596Z,97227.25
2023-04-28T17:56:39.897Z,97229.66
2023-04-28T17:59:06.531Z,97220.03
2023-04-28T18:01:32.923Z,97228.88
2023-04-28T18:03:59.251Z,97229.66
2023-04-28T18:06:25.912Z,97226.19
2023-04-28T18:08:52.214Z,97228.06
2023-04-28T18:11:18.610Z,97219.22
2023-04-28T18:13:46.650Z,97225.38
2023-04-28T18:16:13.648Z,97230.19
2023-04-28T18:18:40.371Z,97234.75
2023-04-28T18:21:06.891Z,97230.47
2023-04-28T18:23:33.228Z,97241.44
2023-04-28T18:25:59.706Z,97229.13
2023-04-28T18:28:26.001Z,97236.38
2023-04-28T18:30:52.580Z,97233.16
2023-04-28T18:33:20.645Z,97223.50
2023-04-28T18:35:49.780Z,97232.63
2023-04-28T18:38:16.087Z,97231.03
2023-04-28T18:40:42.433Z,97234.75
2023-04-28T18:43:08.758Z,97227.81
2023-04-28T18:45:35.128Z,97214.72
2023-04-28T18:48:04.750Z,97215.78
2023-04-28T18:50:31.514Z,97226.75
2023-04-28T18:52:57.903Z,97229.69
2023-04-28T18:55:24.258Z,97236.38
2023-04-28T18:57:50.620Z,97232.91
2023-04-28T19:00:17.169Z,97243.63
2023-04-28T19:02:43.674Z,97252.97
2023-04-28T19:05:10.155Z,97258.59
2023-04-28T19:07:37.042Z,97255.91
2023-04-28T19:10:03.429Z,97246.53
2023-04-28T19:12:30.035Z,97234.25
2023-04-28T19:14:56.470Z,97250.28
2023-04-28T19:17:22.904Z,97260.16
2023-04-28T19:19:49.349Z,97262.56
2023-04-28T19:22:16.210Z,97256.44
2023-04-28T19:24:42.782Z,97256.44
2023-04-28T19:27:09.304Z,97261.53
2023-04-28T19:29:35.807Z,97269.28
2023-04-28T19:32:02.182Z,97266.59
2023-04-28T19:34:28.499Z,97267.41
2023-04-28T19:36:55.052Z,97262.84
2023-04-28T19:39:22.541Z,97270.09
2023-04-28T19:41:52.135Z,97269.00
2023-04-28T19:44:18.555Z,97259.38
2023-04-28T19:46:46.325Z,97262.84
2023-04-28T19:49:13.132Z,97271.13
2023-04-28T19:51:39.572Z,97266.59
2023-04-28T19:54:06.007Z,97260.44
2023-04-28T19:56:32.405Z,97271.13
2023-04-28T19:58:58.792Z,97277.28
2023-04-28T20:01:25.472Z,97279.16
2023-04-28T20:03:52.055Z,97283.97
2023-04-28T20:06:26.066Z,97288.53
2023-04-28T20:08:52.737Z,97293.06
2023-04-28T20:11:19.639Z,97298.41
2023-04-28T20:13:46.236Z,97303.75
2023-04-28T20:16:12.594Z,97298.69
2023-04-28T20:18:39.138Z,97306.69
2023-04-28T20:21:05.539Z,97297.06
2023-04-28T20:23:31.971Z,97305.91
2023-04-28T20:25:58.353Z,97293.59
2023-04-28T20:28:24.691Z,97297.34
2023-04-28T20:30:51.022Z,97296.56
2023-04-28T20:33:17.379Z,97298.41
2023-04-28T20:35:43.734Z,97302.94
2023-04-28T20:38:10.023Z,97300.53
2023-04-28T20:40:36.428Z,97305.91
2023-04-28T20:43:03.093Z,97307.75
2023-04-28T20:45:29.512Z,97299.75
2023-04-28T20:47:56.591Z,97304.53
2023-04-28T20:50:23.481Z,97306.44
2023-04-28T20:52:49.846Z,97312.56
2023-04-28T20:55:16.190Z,97307.50
2023-04-28T20:57:42.570Z,97309.09
2023-04-28T21:00:08.935Z,97310.16
2023-04-28T21:02:35.397Z,97302.13
2023-04-28T21:05:01.796Z,97312.84
2023-04-28T21:07:28.186Z,97313.63
2023-04-28T21:09:54.504Z,97314.44
2023-04-28T21:12:32.722Z,97317.13
2023-04-28T21:15:02.555Z,97319.78
2023-04-28T21:17:29.061Z,97319.78
2023-04-28T21:19:55.634Z,97323.53
2023-04-28T21:22:21.925Z,97317.13
2023-04-28T21:24:48.452Z,97312.06
2023-04-28T21:27:14.790Z,97305.91
2023-04-28T21:29:41.105Z,97312.06
2023-04-28T21:32:07.494Z,97313.09
2023-04-28T21:34:33.953Z,97310.69
2023-04-28T21:37:00.237Z,97315.22
2023-04-28T21:39:26.640Z,97307.50
2023-04-28T21:41:52.950Z,97308.28
2023-04-28T21:44:19.386Z,97308.56
2023-04-28T21:46:45.740Z,97313.09
2023-04-28T21:49:12.602Z,97312.28
2023-04-28T21:51:38.990Z,97321.94
2023-04-28T21:54:05.376Z,97328.31
2023-04-28T21:56:31.684Z,97321.38
2023-04-28T21:58:58.002Z,97312.56
2023-04-28T22:01:24.357Z,97309.09
2023-04-28T22:03:51.046Z,97316.31
2023-04-28T22:06:17.619Z,97311.22
2023-04-28T22:08:43.955Z,97314.69
2023-04-28T22:11:10.382Z,97313.09
2023-04-28T22:13:37.002Z,97320.31
2023-04-28T22:16:03.673Z,97315.22
2023-04-28T22:18:30.219Z,97317.09
2023-04-28T22:20:56.587Z,97318.16
2023-04-28T22:23:22.974Z,97321.91
2023-04-28T22:25:49.336Z,97318.44
2023-04-28T22:28:15.753Z,97318.44
2023-04-28T22:30:42.076Z,97315.22
2023-04-28T22:33:08.412Z,97321.38
2023-04-28T22:35:34.793Z,97323.25
2023-04-28T22:38:01.090Z,97315.50
2023-04-28T22:40:27.411Z,97324.31
2023-04-28T22:42:54.198Z,97323.50
2023-04-28T22:45:20.523Z,97321.88
2023-04-28T22:47:46.891Z,97320.28
2023-04-28T22:50:13.239Z,97317.88
2023-04-28T22:52:42.624Z,97320.56
2023-04-28T22:55:09.068Z,97321.38
2023-04-28T22:57:35.437Z,97318.94
2023-04-28T23:00:01.958Z,97313.59
2023-04-28T23:02:28.469Z,97315.47
2023-04-28T23:04:55.041Z,97312.81
2023-04-28T23:07:21.370Z,97317.63
2023-04-28T23:09:47.718Z,97301.03
2023-04-28T23:12:16.566Z,97312.53
2023-04-28T23:14:42.840Z,97320.56
2023-04-28T23:17:09.178Z,97314.41
2023-04-28T23:19:35.675Z,97316.25
2023-04-28T23:22:02.028Z,97312.81
2023-04-28T23:24:28.403Z,97306.66
2023-04-28T23:26:54.786Z,97303.97
2023-04-28T23:29:21.159Z,97310.13
2023-04-28T23:31:47.639Z,97311.19
2023-04-28T23:34:14.069Z,97308.50
2023-04-28T23:36:40.438Z,97309.59
2023-04-28T23:39:06.717Z,97308.78
2023-04-28T23:41:33.112Z,97307.97
2023-04-28T23:43:59.485Z,97310.66
2023-04-28T23:46:25.859Z,97306.38
2023-04-28T23:48:52.194Z,97298.38
2023-04-28T23:51:18.569Z,97302.13
2023-04-28T23:53:44.900Z,97298.63
2023-04-28T23:56:11.378Z,97299.44
2023-04-28T23:58:38.293Z,97302.34
